Time;durP1;ratioP1;P1;durP2;ratioP2;P2;SDS_P1;SDS_P2;PMS_P1;PMS_P2;Temp;Humidity;BMP_temperature;BMP_pressure;BME280_temperature;BME280_humidity;BME280_pressure;Samples;Min_cycle;Max_cycle;Signal;HPM_P1;HPM_P2
2023/03/13 00:01:37;;;;;;;19.60;6.60;;;;;;;9.91;71.72;100023.94;5095420;28;20209;-68
2023/03/13 00:04:04;;;;;;;14.27;5.27;;;;;;;9.90;71.70;100025.78;5095954;28;20178;-68
2023/03/13 00:06:35;;;;;;;14.73;5.03;;;;;;;9.95;72.10;100018.22;5095377;28;20548;-68
2023/03/13 00:09:04;;;;;;;15.83;3.67;;;;;;;9.97;71.83;100018.94;5095594;28;20182;-68
2023/03/13 00:11:31;;;;;;;14.60;4.80;;;;;;;10.05;72.01;100012.97;5095711;28;20220;-68
2023/03/13 00:13:59;;;;;;;16.40;4.53;;;;;;;10.02;72.58;99999.84;5095707;28;20220;-68
2023/03/13 00:16:26;;;;;;;12.90;4.57;;;;;;;10.01;72.50;100003.53;5095336;28;20244;-69
2023/03/13 00:18:54;;;;;;;19.00;5.07;;;;;;;10.00;73.20;100008.00;5095155;28;20217;-69
2023/03/13 00:21:24;;;;;;;12.37;4.47;;;;;;;9.97;74.09;100000.22;5077474;28;20272;-68
2023/03/13 00:23:51;;;;;;;18.20;5.27;;;;;;;9.97;74.45;99999.38;5094862;28;20201;-68
2023/03/13 00:26:19;;;;;;;16.63;3.37;;;;;;;10.04;74.01;99995.25;5095287;28;20554;-68
2023/03/13 00:28:46;;;;;;;8.30;5.60;;;;;;;9.94;74.57;99983.59;5095235;28;20196;-68
2023/03/13 00:31:19;;;;;;;15.43;4.90;;;;;;;9.95;75.17;99971.91;5094694;28;20231;-68
2023/03/13 00:33:51;;;;;;;11.77;4.83;;;;;;;9.85;75.95;99962.94;5076689;28;20186;-68
2023/03/13 00:36:18;;;;;;;16.87;5.37;;;;;;;9.85;76.32;99962.94;5076930;28;20204;-68
2023/03/13 00:38:45;;;;;;;9.50;5.50;;;;;;;9.78;76.78;99962.59;5094950;28;20189;-68
2023/03/13 00:41:14;;;;;;;14.93;4.40;;;;;;;9.71;77.50;99948.84;5094595;28;20184;-68
2023/03/13 00:43:42;;;;;;;12.83;3.57;;;;;;;9.71;78.13;99950.69;5094890;28;20218;-69
2023/03/13 00:46:11;;;;;;;11.37;4.57;;;;;;;9.70;78.60;99936.47;5076169;28;20553;-69
2023/03/13 00:48:38;;;;;;;10.03;4.33;;;;;;;9.63;79.56;99935.25;5094495;28;20255;-69
2023/03/13 00:51:06;;;;;;;13.60;3.43;;;;;;;9.56;80.20;99934.91;5094534;28;20214;-69
2023/03/13 00:53:33;;;;;;;10.93;3.70;;;;;;;9.54;80.76;99926.16;5094623;28;20334;-68
2023/03/13 00:56:11;;;;;;;8.73;4.00;;;;;;;9.46;81.06;99925.09;5076231;28;20192;-68
2023/03/13 00:58:40;;;;;;;10.07;3.33;;;;;;;9.45;81.74;99916.19;5094921;28;20169;-67
2023/03/13 01:01:08;;;;;;;19.07;4.20;;;;;;;9.36;82.22;99900.91;5094573;28;20227;-66
2023/03/13 01:03:36;;;;;;;12.03;4.07;;;;;;;9.34;82.55;99895.69;5094242;28;20281;-66
2023/03/13 01:06:05;;;;;;;11.57;3.60;;;;;;;9.30;82.92;99883.53;5094175;28;20269;-66
2023/03/13 01:08:31;;;;;;;12.10;4.30;;;;;;;9.30;83.29;99886.22;5076260;28;20200;-66
2023/03/13 01:10:59;;;;;;;9.43;4.07;;;;;;;9.29;84.04;99880.97;5094080;28;20590;-66
2023/03/13 01:13:29;;;;;;;6.70;3.63;;;;;;;9.25;84.00;99872.38;5075654;28;20270;-66
2023/03/13 01:15:56;;;;;;;17.70;3.57;;;;;;;9.33;83.98;99872.59;5094272;28;20197;-66
2023/03/13 01:18:22;;;;;;;15.97;4.77;;;;;;;9.28;84.20;99861.44;5075880;28;20247;-66
2023/03/13 01:20:49;;;;;;;22.60;4.90;;;;;;;9.31;84.50;99858.53;5093968;28;20217;-68
2023/03/13 01:23:17;;;;;;;10.50;4.07;;;;;;;9.29;84.36;99854.25;5094384;28;20210;-67
2023/03/13 01:25:43;;;;;;;17.83;4.03;;;;;;;9.25;84.71;99863.53;5075637;28;20193;-67
2023/03/13 01:28:09;;;;;;;10.63;3.77;;;;;;;9.28;84.93;99857.91;5075710;28;20194;-67
2023/03/13 01:30:36;;;;;;;10.17;4.00;;;;;;;9.25;85.34;99850.16;5093781;28;20284;-67
2023/03/13 01:33:02;;;;;;;12.57;3.97;;;;;;;9.27;85.52;99849.06;5075485;28;20220;-67
2023/03/13 01:35:29;;;;;;;12.57;3.33;;;;;;;9.28;85.83;99849.91;5093678;28;20584;-68
2023/03/13 01:37:55;;;;;;;13.10;4.07;;;;;;;9.29;86.52;99843.56;5093692;28;20213;-68
2023/03/13 01:40:21;;;;;;;15.77;4.40;;;;;;;9.11;88.35;99827.22;5075514;28;20232;-68
2023/03/13 01:42:53;;;;;;;23.80;4.27;;;;;;;9.12;88.44;99835.13;5093542;28;20710;-68
2023/03/13 01:45:56;;;;;;;12.10;4.87;;;;;;;9.02;89.57;99819.94;5075450;28;20221;-68
2023/03/13 01:48:54;;;;;;;18.03;3.93;;;;;;;8.90;90.76;99806.59;5075424;28;20182;-68
2023/03/13 01:51:41;;;;;;;8.47;3.47;;;;;;;8.92;91.17;99799.31;5076155;28;20282;-69
2023/03/13 01:54:15;;;;;;;8.93;4.30;;;;;;;8.97;91.40;99785.59;5075406;28;20723;-69
2023/03/13 01:56:49;;;;;;;10.33;4.50;;;;;;;8.89;91.71;99775.53;5074490;28;20188;-68
2023/03/13 01:59:21;;;;;;;12.87;4.23;;;;;;;8.87;91.96;99773.97;5075335;28;20286;-70
2023/03/13 02:01:49;;;;;;;14.93;4.53;;;;;;;8.86;92.51;99773.13;5075255;28;20304;-69
2023/03/13 02:04:18;;;;;;;3.70;3.03;;;;;;;8.84;92.46;99760.88;5075343;28;20194;-69
2023/03/13 02:06:48;;;;;;;14.30;5.27;;;;;;;8.87;92.84;99752.59;5093359;28;20234;-69
2023/03/13 02:09:20;;;;;;;7.07;4.17;;;;;;;8.86;92.67;99745.53;5075314;28;20225;-69
2023/03/13 02:11:52;;;;;;;13.73;3.60;;;;;;;8.87;93.08;99733.91;5093163;28;20300;-69
2023/03/13 02:14:22;;;;;;;16.63;3.33;;;;;;;8.88;93.16;99736.47;5075237;28;20225;-70
2023/03/13 02:16:50;;;;;;;16.50;4.40;;;;;;;8.93;93.13;99731.59;5058645;28;20324;-70
2023/03/13 02:19:27;;;;;;;12.77;5.40;;;;;;;8.91;93.19;99730.88;5075111;28;20216;-70
2023/03/13 02:22:03;;;;;;;9.27;5.00;;;;;;;8.83;93.75;99714.59;5075891;28;20214;-70
2023/03/13 02:25:08;;;;;;;11.97;3.93;;;;;;;8.85;94.16;99704.66;5074928;28;20619;-70
2023/03/13 02:27:35;;;;;;;14.30;4.83;;;;;;;8.81;94.23;99691.69;5071519;28;20219;-70
2023/03/13 02:30:04;;;;;;;20.77;5.60;;;;;;;8.89;94.27;99690.09;5075047;28;20190;-70
2023/03/13 02:32:31;;;;;;;19.70;4.40;;;;;;;8.87;94.55;99685.84;5074859;28;20715;-70
2023/03/13 02:35:04;;;;;;;15.63;5.10;;;;;;;8.82;94.73;99685.38;5093027;28;20224;-71
2023/03/13 02:37:34;;;;;;;10.90;4.10;;;;;;;8.89;94.88;99671.41;5074837;28;20179;-70
2023/03/13 02:40:10;;;;;;;14.60;4.50;;;;;;;8.88;94.77;99666.19;5075183;28;20247;-70
2023/03/13 02:42:39;;;;;;;16.03;5.27;;;;;;;8.89;94.71;99651.88;5093118;28;20559;-70
2023/03/13 02:45:07;;;;;;;12.50;5.20;;;;;;;8.89;94.81;99657.22;5074828;28;20661;-70
2023/03/13 02:47:33;;;;;;;16.47;5.37;;;;;;;8.94;94.64;99647.84;5074879;28;20244;-70
2023/03/13 02:50:00;;;;;;;13.10;4.03;;;;;;;8.99;94.94;99643.94;5092931;28;20269;-70
2023/03/13 02:52:31;;;;;;;18.97;4.30;;;;;;;8.97;94.50;99641.38;5093045;28;20229;-71
2023/03/13 02:55:01;;;;;;;11.73;5.17;;;;;;;8.98;95.12;99632.41;5074865;28;20281;-70
2023/03/13 02:57:28;;;;;;;13.80;4.27;;;;;;;9.01;94.51;99626.81;5092845;28;20186;-70
2023/03/13 02:59:54;;;;;;;32.30;4.67;;;;;;;9.02;94.81;99628.50;5074766;28;20190;-70
2023/03/13 03:02:21;;;;;;;15.60;4.47;;;;;;;9.12;94.68;99618.75;5074677;28;20206;-70
2023/03/13 03:04:48;;;;;;;9.87;3.97;;;;;;;9.20;93.99;99617.28;5074578;28;20193;-70
2023/03/13 03:07:14;;;;;;;10.53;4.43;;;;;;;9.12;94.42;99618.75;5074654;28;20661;-70
2023/03/13 03:09:40;;;;;;;11.17;3.83;;;;;;;9.22;94.52;99624.19;5077952;28;20572;-70
2023/03/13 03:12:11;;;;;;;10.83;3.27;;;;;;;9.25;94.44;99601.69;5078169;28;20209;-70
2023/03/13 03:14:38;;;;;;;13.17;3.73;;;;;;;9.27;94.48;99587.22;5096389;28;20561;-70
2023/03/13 03:17:04;;;;;;;7.63;3.20;;;;;;;9.27;94.67;99592.56;5078116;28;20213;-70
2023/03/13 03:19:31;;;;;;;12.50;4.13;;;;;;;9.29;94.60;99587.09;5078104;28;20224;-70
2023/03/13 03:21:58;;;;;;;11.60;4.30;;;;;;;9.33;94.57;99588.53;5078265;28;20297;-69
2023/03/13 03:24:25;;;;;;;7.23;3.10;;;;;;;9.32;94.71;99586.84;5096328;28;20604;-70
2023/03/13 03:26:51;;;;;;;9.20;4.77;;;;;;;9.37;94.65;99579.28;5096179;28;20564;-70
2023/03/13 03:29:24;;;;;;;10.40;5.33;;;;;;;9.46;94.53;99575.00;5077981;28;20663;-70
2023/03/13 03:31:53;;;;;;;11.37;4.73;;;;;;;9.46;94.44;99583.00;5077834;28;20248;-70
2023/03/13 03:34:20;;;;;;;7.10;5.47;;;;;;;9.45;94.71;99575.94;5078119;28;20602;-70
2023/03/13 03:36:47;;;;;;;14.17;5.57;;;;;;;9.53;94.53;99587.69;5078078;28;20614;-70
2023/03/13 03:39:13;;;;;;;8.23;4.63;;;;;;;9.53;94.47;99576.16;5096199;28;20190;-71
2023/03/13 03:41:41;;;;;;;4.90;4.00;;;;;;;9.55;94.71;99575.03;5077639;28;20210;-70
2023/03/13 03:44:08;;;;;;;7.03;4.30;;;;;;;9.58;94.57;99572.09;5077634;28;20239;-70
2023/03/13 03:46:48;;;;;;;11.27;4.27;;;;;;;9.66;94.46;99573.25;5077721;28;20189;-70
2023/03/13 03:49:14;;;;;;;3.37;3.17;;;;;;;9.71;94.27;99576.38;5077634;28;20190;-70
2023/03/13 03:51:42;;;;;;;10.67;3.00;;;;;;;9.71;94.46;99573.69;5095836;28;20214;-70
2023/03/13 03:54:08;;;;;;;4.80;2.93;;;;;;;9.74;94.47;99576.09;5077691;28;20244;-70
2023/03/13 03:56:35;;;;;;;7.03;2.37;;;;;;;9.84;94.56;99582.34;5096134;28;20276;-70
2023/03/13 03:59:01;;;;;;;7.50;2.57;;;;;;;9.86;94.20;99585.72;5095499;28;20204;-70
2023/03/13 04:01:46;;;;;;;4.90;2.20;;;;;;;9.92;94.00;99584.34;5095852;28;20304;-70
2023/03/13 04:04:18;;;;;;;4.90;2.60;;;;;;;9.92;93.85;99597.72;5077979;28;20190;-70
2023/03/13 04:06:48;;;;;;;3.03;2.57;;;;;;;9.97;94.00;99592.81;5078166;28;20331;-70
2023/03/13 04:09:15;;;;;;;3.93;2.33;;;;;;;9.93;94.30;99594.06;5077213;28;20193;-70
2023/03/13 04:11:41;;;;;;;1.80;1.70;;;;;;;9.92;94.46;99579.84;5077104;28;20317;-70
2023/03/13 04:14:09;;;;;;;7.37;2.40;;;;;;;9.87;94.92;99584.75;5077034;28;20209;-70
2023/03/13 04:16:36;;;;;;;20.50;2.77;;;;;;;9.90;94.67;99576.47;5077895;28;20201;-70
2023/03/13 04:19:03;;;;;;;2.40;2.20;;;;;;;9.88;95.40;99562.38;5094786;28;20224;-70
2023/03/13 04:21:29;;;;;;;2.27;2.17;;;;;;;9.90;95.43;99565.75;5076413;28;20210;-70
2023/03/13 04:24:01;;;;;;;2.73;2.43;;;;;;;9.91;95.24;99567.47;5076780;28;20174;-70
2023/03/13 04:26:28;;;;;;;3.73;2.53;;;;;;;9.88;95.33;99549.00;5077420;28;20186;-70
2023/03/13 04:28:56;;;;;;;5.23;2.53;;;;;;;9.92;95.54;99542.41;5077373;28;20204;-70
2023/03/13 04:31:49;;;;;;;3.40;2.30;;;;;;;9.94;95.69;99535.09;5090781;28;20221;-70
2023/03/13 04:34:31;;;;;;;4.63;2.50;;;;;;;9.94;95.75;99540.44;5095309;28;20202;-70
2023/03/13 04:37:00;;;;;;;3.90;2.90;;;;;;;9.94;95.79;99529.75;5095062;28;20190;-70
2023/03/13 04:39:40;;;;;;;2.60;2.50;;;;;;;9.93;95.68;99528.03;5076600;28;20228;-70
2023/03/13 04:42:22;;;;;;;3.07;2.23;;;;;;;10.04;95.35;99543.16;5094945;28;20259;-70
2023/03/13 04:44:58;;;;;;;5.57;2.30;;;;;;;10.11;95.15;99543.47;5076485;28;20235;-70
2023/03/13 04:47:37;;;;;;;3.00;2.37;;;;;;;10.10;95.44;99539.06;5076445;28;20194;-70
2023/03/13 04:50:27;;;;;;;4.93;2.40;;;;;;;10.12;95.21;99527.25;5076661;28;20193;-70
2023/03/13 04:53:04;;;;;;;2.23;2.13;;;;;;;10.22;95.34;99524.59;5076252;28;20770;-71
2023/03/13 04:56:03;;;;;;;3.73;2.07;;;;;;;10.26;95.13;99522.50;5049595;28;20289;-71
2023/03/13 04:58:29;;;;;;;2.50;2.20;;;;;;;10.28;95.43;99523.22;5094651;28;20189;-71
2023/03/13 05:01:08;;;;;;;8.43;1.87;;;;;;;10.28;95.67;99513.38;5076161;28;20189;-70
2023/03/13 05:04:07;;;;;;;2.40;2.30;;;;;;;10.38;95.66;99514.22;5086068;28;20193;-70
2023/03/13 05:06:37;;;;;;;2.40;2.20;;;;;;;10.40;95.52;99520.28;5094748;28;20280;-70
2023/03/13 05:09:29;;;;;;;2.23;2.13;;;;;;;10.54;95.16;99512.84;5075987;28;20190;-70
2023/03/13 05:12:29;;;;;;;2.10;2.10;;;;;;;10.66;95.46;99503.69;5075916;28;20217;-70
2023/03/13 05:15:34;;;;;;;2.53;2.33;;;;;;;10.81;95.27;99499.59;5031874;28;20748;-70
2023/03/13 05:18:12;;;;;;;3.27;3.07;;;;;;;10.95;94.63;99502.84;5031879;28;20660;-71
2023/03/13 05:20:45;;;;;;;3.60;3.40;;;;;;;10.99;94.12;99491.69;5059337;28;20674;-71
2023/03/13 05:23:30;;;;;;;3.00;2.90;;;;;;;11.04;94.06;99492.09;5094168;28;20231;-71
2023/03/13 05:26:02;;;;;;;3.40;3.27;;;;;;;11.11;94.20;99484.34;5075705;28;20199;-71
2023/03/13 05:28:34;;;;;;;6.47;5.03;;;;;;;11.24;93.59;99495.56;5093936;28;20536;-71
2023/03/13 05:31:26;;;;;;;4.20;4.00;;;;;;;11.33;93.11;99483.13;5075509;28;20315;-71
2023/03/13 05:34:17;;;;;;;6.03;4.77;;;;;;;11.44;93.07;99488.31;5075599;28;20373;-71
2023/03/13 05:37:10;;;;;;;5.13;4.97;;;;;;;11.53;92.90;99488.44;5075569;28;20194;-71
2023/03/13 05:39:56;;;;;;;7.10;4.10;;;;;;;11.57;92.00;99482.63;5093277;28;20209;-71
2023/03/13 05:42:23;;;;;;;5.03;4.20;;;;;;;11.58;91.79;99478.09;5094140;28;20210;-70
2023/03/13 05:45:14;;;;;;;3.63;3.53;;;;;;;11.64;91.61;99485.56;5094177;28;20604;-70
2023/03/13 05:47:46;;;;;;;3.77;3.77;;;;;;;11.73;91.09;99499.91;5094166;28;20618;-71
2023/03/13 05:50:36;;;;;;;3.40;3.33;;;;;;;11.74;90.76;99498.94;5075351;28;20185;-71
2023/03/13 05:53:17;;;;;;;4.67;4.27;;;;;;;11.84;89.83;99479.09;5075398;28;20654;-71
2023/03/13 05:56:05;;;;;;;4.03;3.77;;;;;;;11.87;90.73;99494.94;5075647;28;20198;-71
2023/03/13 05:58:50;;;;;;;4.83;4.17;;;;;;;11.91;89.62;99482.91;5075491;28;20201;-71
2023/03/13 06:01:48;;;;;;;3.90;3.70;;;;;;;11.94;89.39;99483.59;5075244;28;20213;-70
2023/03/13 06:04:25;;;;;;;4.73;3.00;;;;;;;11.89;89.50;99479.53;5075321;28;20185;-70
2023/03/13 06:06:52;;;;;;;3.87;3.50;;;;;;;11.96;89.95;99458.31;5093370;28;20249;-70
2023/03/13 06:09:19;;;;;;;3.00;2.90;;;;;;;11.91;89.19;99453.41;5076351;28;20182;-70
2023/03/13 06:11:45;;;;;;;6.87;2.70;;;;;;;11.88;89.48;99448.34;5075131;28;20237;-70
2023/03/13 06:14:12;;;;;;;3.17;2.90;;;;;;;11.85;89.93;99447.75;5075085;28;20213;-70
2023/03/13 06:16:44;;;;;;;4.30;2.97;;;;;;;11.87;89.08;99443.13;5075680;28;20178;-70
2023/03/13 06:19:16;;;;;;;2.33;2.23;;;;;;;11.94;88.93;99446.03;5093489;28;20670;-71
2023/03/13 06:21:43;;;;;;;3.10;2.77;;;;;;;11.89;89.42;99452.69;5093333;28;20684;-72
2023/03/13 06:24:10;;;;;;;2.83;2.83;;;;;;;11.98;89.51;99447.44;5093094;28;20200;-71
2023/03/13 06:26:36;;;;;;;3.67;3.47;;;;;;;12.08;88.93;99457.09;5093180;28;20173;-71
2023/03/13 06:29:03;;;;;;;2.83;2.73;;;;;;;12.10;87.82;99455.13;5093312;28;20189;-71
2023/03/13 06:31:29;;;;;;;3.83;3.63;;;;;;;12.12;87.54;99455.81;5093308;28;20202;-71
2023/03/13 06:33:55;;;;;;;3.87;3.80;;;;;;;12.23;87.39;99461.94;5093012;28;20250;-71
2023/03/13 06:36:23;;;;;;;2.80;2.70;;;;;;;12.19;87.45;99453.38;5093016;28;20189;-71
2023/03/13 06:38:50;;;;;;;5.23;5.03;;;;;;;12.25;87.18;99457.28;5092951;28;20299;-71
2023/03/13 06:41:17;;;;;;;3.40;3.30;;;;;;;12.33;87.42;99454.66;5093155;28;20190;-71
2023/03/13 06:43:43;;;;;;;3.30;3.30;;;;;;;12.37;86.15;99455.22;5095254;28;20272;-71
2023/03/13 06:46:19;;;;;;;4.60;4.20;;;;;;;12.44;86.55;99456.28;5097155;28;20564;-71
2023/03/13 06:48:45;;;;;;;5.90;3.63;;;;;;;12.50;85.07;99458.38;5097096;28;20188;-71
2023/03/13 06:51:13;;;;;;;4.50;4.30;;;;;;;12.53;85.46;99469.63;5096914;28;20566;-70
2023/03/13 06:53:40;;;;;;;4.10;3.83;;;;;;;12.55;84.94;99470.31;5096954;28;20641;-71
2023/03/13 06:56:08;;;;;;;4.07;3.80;;;;;;;12.58;84.39;99479.91;5096724;28;20185;-71
2023/03/13 06:58:34;;;;;;;4.27;4.20;;;;;;;12.61;85.00;99470.69;5096939;28;20532;-71
2023/03/13 07:01:12;;;;;;;5.67;5.00;;;;;;;12.65;84.38;99477.47;5097211;28;20696;-72
2023/03/13 07:03:42;;;;;;;4.90;4.53;;;;;;;12.67;84.47;99470.09;5096620;28;20696;-71
2023/03/13 07:06:10;;;;;;;3.80;3.50;;;;;;;12.66;84.30;99466.53;5096843;28;20189;-72
2023/03/13 07:08:37;;;;;;;3.63;3.53;;;;;;;12.69;83.82;99468.06;5096784;28;20273;-72
2023/03/13 07:11:08;;;;;;;5.30;4.87;;;;;;;12.76;83.37;99471.81;5096477;28;20596;-71
2023/03/13 07:13:35;;;;;;;4.77;3.73;;;;;;;12.79;83.32;99465.31;5096707;28;20243;-72
2023/03/13 07:16:07;;;;;;;4.80;4.50;;;;;;;12.81;82.87;99474.91;5096595;28;20666;-72
2023/03/13 07:18:34;;;;;;;5.30;4.00;;;;;;;12.84;82.49;99455.78;5096767;28;20182;-72
2023/03/13 07:21:05;;;;;;;4.30;4.30;;;;;;;12.88;81.91;99462.53;5078488;28;20181;-71
2023/03/13 07:23:33;;;;;;;5.77;5.37;;;;;;;12.89;81.91;99472.28;5096388;28;20202;-72
2023/03/13 07:26:02;;;;;;;4.27;4.17;;;;;;;12.94;81.64;99450.31;5096128;28;20185;-71
2023/03/13 07:28:33;;;;;;;3.10;2.97;;;;;;;12.93;81.12;99451.34;5096126;28;20196;-72
2023/03/13 07:31:14;;;;;;;5.87;5.23;;;;;;;13.05;81.13;99433.06;5096740;28;20608;-71
2023/03/13 07:33:43;;;;;;;3.60;3.40;;;;;;;13.08;80.52;99439.00;5096537;28;20232;-71
2023/03/13 07:36:13;;;;;;;5.93;4.83;;;;;;;13.05;80.86;99441.13;5096821;28;20210;-71
2023/03/13 07:38:42;;;;;;;3.57;2.93;;;;;;;13.05;80.32;99431.25;5095947;28;20185;-71
2023/03/13 07:41:11;;;;;;;3.37;3.07;;;;;;;13.07;80.43;99433.75;5095782;28;20224;-70
2023/03/13 07:43:37;;;;;;;3.93;3.23;;;;;;;13.10;80.41;99430.78;5095817;28;20186;-71
2023/03/13 07:46:05;;;;;;;3.83;2.50;;;;;;;13.10;79.83;99430.78;5096094;28;20178;-71
2023/03/13 07:48:34;;;;;;;3.20;3.10;;;;;;;13.14;79.85;99430.28;5096260;28;20192;-71
2023/03/13 07:51:02;;;;;;;3.67;3.23;;;;;;;13.15;79.78;99417.69;5095613;28;20186;-71
2023/03/13 07:53:28;;;;;;;5.10;4.53;;;;;;;13.22;78.80;99428.63;5095483;28;20213;-72
2023/03/13 07:55:58;;;;;;;2.93;2.53;;;;;;;13.20;79.29;99418.06;5094881;28;20190;-71
2023/03/13 07:58:27;;;;;;;5.00;4.70;;;;;;;13.19;78.67;99427.97;5095639;28;20555;-71
2023/03/13 08:00:53;;;;;;;2.67;2.47;;;;;;;13.23;78.82;99428.50;5095850;28;20192;-71
2023/03/13 08:03:21;;;;;;;3.73;3.63;;;;;;;13.28;78.91;99428.03;5095399;28;20571;-71
2023/03/13 08:05:56;;;;;;;3.50;3.37;;;;;;;13.20;78.71;99426.13;5095739;28;20190;-71
2023/03/13 08:08:22;;;;;;;10.17;4.90;;;;;;;13.25;78.21;99423.78;5095909;28;20177;-71
2023/03/13 08:10:48;;;;;;;4.73;3.43;;;;;;;13.20;77.82;99432.34;5095333;28;20186;-71
2023/03/13 08:13:15;;;;;;;3.10;2.87;;;;;;;13.28;78.01;99430.72;5095120;28;20301;-71
2023/03/13 08:15:41;;;;;;;3.00;3.00;;;;;;;13.29;77.71;99432.41;5096008;28;20190;-71
2023/03/13 08:18:07;;;;;;;2.47;2.47;;;;;;;13.30;77.69;99423.34;5095468;28;20670;-71
2023/03/13 08:20:34;;;;;;;3.10;3.00;;;;;;;13.33;77.55;99433.78;5095131;28;20670;-71
2023/03/13 08:23:00;;;;;;;6.43;3.40;;;;;;;13.33;77.96;99415.78;5095552;28;20206;-71
2023/03/13 08:25:27;;;;;;;3.50;3.20;;;;;;;13.35;77.17;99410.25;5095024;28;20194;-71
2023/03/13 08:27:53;;;;;;;4.43;4.27;;;;;;;13.36;77.08;99422.69;5095247;28;20197;-71
2023/03/13 08:30:20;;;;;;;5.00;3.00;;;;;;;13.38;77.23;99423.38;5094819;28;20196;-71
2023/03/13 08:32:46;;;;;;;4.40;3.73;;;;;;;13.39;77.22;99441.22;5095054;28;20208;-71
2023/03/13 08:35:13;;;;;;;4.03;3.20;;;;;;;13.42;76.28;99440.88;5094639;28;20302;-71
2023/03/13 08:37:39;;;;;;;3.40;3.20;;;;;;;13.46;75.05;99433.34;5095028;28;20192;-71
2023/03/13 08:40:10;;;;;;;5.20;3.23;;;;;;;13.38;76.08;99442.19;5094962;28;20190;-71
2023/03/13 08:42:37;;;;;;;8.70;3.90;;;;;;;13.43;76.31;99442.56;5077489;28;20579;-70
2023/03/13 08:45:05;;;;;;;3.73;3.47;;;;;;;13.48;76.14;99442.09;5094631;28;20178;-70
2023/03/13 08:47:31;;;;;;;8.67;3.50;;;;;;;13.47;75.95;99430.50;5094562;28;20221;-70
2023/03/13 08:49:57;;;;;;;3.20;3.03;;;;;;;13.57;75.90;99435.75;5094618;28;20526;-71
2023/03/13 08:52:25;;;;;;;3.57;3.47;;;;;;;13.61;74.86;99429.03;5094378;28;20577;-71
2023/03/13 08:54:51;;;;;;;3.90;3.67;;;;;;;13.57;76.10;99436.56;5094375;28;20201;-71
2023/03/13 08:57:18;;;;;;;3.73;3.53;;;;;;;13.59;76.08;99445.34;5094947;28;20190;-71
2023/03/13 08:59:44;;;;;;;6.63;3.30;;;;;;;13.58;75.66;99449.03;5094640;28;20544;-71
2023/03/13 09:02:10;;;;;;;3.70;3.40;;;;;;;13.63;75.56;99435.09;5094540;28;20565;-70
2023/03/13 09:04:37;;;;;;;3.20;3.10;;;;;;;13.73;75.67;99443.06;5094276;28;20539;-70
2023/03/13 09:07:03;;;;;;;4.60;3.37;;;;;;;13.91;74.50;99427.66;5093828;28;20196;-71
2023/03/13 09:09:29;;;;;;;3.90;3.50;;;;;;;13.99;74.82;99432.19;5094467;28;20185;-71
2023/03/13 09:11:56;;;;;;;6.67;4.07;;;;;;;14.06;74.56;99416.25;5094114;28;20232;-70
2023/03/13 09:14:22;;;;;;;4.93;3.53;;;;;;;14.16;73.89;99425.84;5093967;28;20201;-70
2023/03/13 09:16:49;;;;;;;12.67;3.50;;;;;;;14.22;73.88;99400.94;5094414;28;20196;-70
2023/03/13 09:19:15;;;;;;;3.07;2.80;;;;;;;14.31;74.79;99406.34;5094052;28;20186;-70
2023/03/13 09:21:42;;;;;;;3.30;3.07;;;;;;;14.39;73.52;99411.72;5093947;28;20202;-70
2023/03/13 09:24:08;;;;;;;8.40;3.00;;;;;;;14.39;73.27;99407.19;5093850;28;20182;-70
2023/03/13 09:26:35;;;;;;;3.23;3.13;;;;;;;14.38;73.49;99410.03;5094241;28;20624;-71
2023/03/13 09:29:01;;;;;;;5.37;2.93;;;;;;;14.38;74.33;99405.50;5093728;28;20214;-70
2023/03/13 09:31:29;;;;;;;5.03;3.00;;;;;;;14.56;73.63;99393.75;5093764;28;20224;-71
2023/03/13 09:33:56;;;;;;;3.77;3.67;;;;;;;14.57;74.17;99407.03;5093994;28;20206;-70
2023/03/13 09:36:23;;;;;;;5.20;3.00;;;;;;;14.58;73.20;99413.28;5094221;28;20196;-70
2023/03/13 09:38:53;;;;;;;2.93;2.73;;;;;;;14.57;73.07;99396.25;5093551;28;20239;-70
2023/03/13 09:41:24;;;;;;;4.23;3.00;;;;;;;14.53;73.54;99386.78;5075749;28;20289;-69
2023/03/13 09:43:57;;;;;;;2.83;2.60;;;;;;;14.56;73.18;99388.38;5093612;28;20194;-70
2023/03/13 09:46:35;;;;;;;5.97;3.33;;;;;;;14.64;73.92;99389.19;5093893;28;20274;-70
2023/03/13 09:49:18;;;;;;;3.00;2.90;;;;;;;14.75;71.98;99403.31;5094167;28;20188;-70
2023/03/13 09:51:50;;;;;;;3.03;2.43;;;;;;;14.83;72.81;99397.94;5093812;28;20212;-69
2023/03/13 09:54:24;;;;;;;4.23;2.87;;;;;;;14.73;73.47;99379.25;5093977;28;20275;-71
2023/03/13 09:56:58;;;;;;;2.90;2.77;;;;;;;14.59;72.38;99385.34;5093744;28;20269;-70
2023/03/13 09:59:42;;;;;;;4.43;2.70;;;;;;;14.55;73.86;99390.19;5093840;28;20261;-70
2023/03/13 10:02:23;;;;;;;4.90;3.00;;;;;;;14.62;74.37;99387.69;5093390;28;20571;-70
2023/03/13 10:05:01;;;;;;;4.03;2.77;;;;;;;14.80;74.17;99384.81;5093694;28;20597;-70
2023/03/13 10:07:27;;;;;;;6.53;3.20;;;;;;;14.78;74.35;99368.78;5093910;28;20531;-70
2023/03/13 10:09:53;;;;;;;3.33;3.17;;;;;;;14.70;74.30;99384.13;5093338;28;20177;-70
2023/03/13 10:12:26;;;;;;;3.30;3.00;;;;;;;14.62;75.17;99366.13;5093153;28;20721;-70
2023/03/13 10:15:23;;;;;;;6.80;3.33;;;;;;;14.61;75.20;99372.53;5093496;28;20194;-70
2023/03/13 10:17:49;;;;;;;3.53;3.30;;;;;;;14.72;75.55;99355.16;5094459;28;20185;-70
2023/03/13 10:20:27;;;;;;;8.03;3.00;;;;;;;14.73;74.76;99357.69;5097720;28;20185;-70
2023/03/13 10:23:02;;;;;;;2.93;2.63;;;;;;;14.71;74.35;99353.50;5097638;28;20220;-70
2023/03/13 10:25:37;;;;;;;4.03;3.60;;;;;;;14.71;74.96;99357.03;5097320;28;20193;-70
2023/03/13 10:28:05;;;;;;;6.33;3.27;;;;;;;14.71;74.50;99350.78;5097924;28;20205;-70
2023/03/13 10:30:34;;;;;;;3.80;3.23;;;;;;;14.76;75.20;99338.47;5097287;28;20192;-70
2023/03/13 10:33:18;;;;;;;3.60;2.83;;;;;;;14.82;73.67;99332.41;5098201;28;20636;-70
2023/03/13 10:35:45;;;;;;;16.47;3.50;;;;;;;15.07;73.79;99332.34;5100337;28;20679;-70
2023/03/13 10:38:20;;;;;;;2.97;2.77;;;;;;;15.16;72.74;99317.81;5101075;28;20186;-70
2023/03/13 10:40:57;;;;;;;2.90;2.90;;;;;;;15.34;72.02;99325.63;5104458;28;20209;-70
2023/03/13 10:43:25;;;;;;;5.63;2.77;;;;;;;15.33;71.39;99334.75;5105915;28;20216;-70
2023/03/13 10:45:52;;;;;;;5.87;3.37;;;;;;;15.16;71.37;99331.28;5104309;28;20194;-70
2023/03/13 10:48:24;;;;;;;3.33;3.13;;;;;;;15.11;71.74;99328.28;5104323;28;20533;-70
2023/03/13 10:50:56;;;;;;;3.20;2.90;;;;;;;15.13;72.18;99320.00;5101469;28;20182;-69
2023/03/13 10:53:28;;;;;;;2.93;2.73;;;;;;;15.42;70.88;99322.06;5097831;28;20214;-70
2023/03/13 10:56:02;;;;;;;7.93;3.80;;;;;;;15.48;70.11;99307.88;5096841;28;20206;-69
2023/03/13 10:58:54;;;;;;;2.97;2.83;;;;;;;15.55;70.34;99298.03;5097073;28;20598;-69
2023/03/13 11:01:33;;;;;;;3.57;3.33;;;;;;;15.53;69.94;99290.13;5093221;28;20208;-68
2023/03/13 11:04:28;;;;;;;2.67;2.50;;;;;;;15.62;70.01;99290.91;5097469;28;20181;-69
2023/03/13 11:07:04;;;;;;;6.97;3.33;;;;;;;15.61;68.97;99288.38;5096907;28;20193;-69
2023/03/13 11:09:32;;;;;;;5.03;3.07;;;;;;;15.88;68.22;99287.06;5101264;28;20174;-70
2023/03/13 11:12:05;;;;;;;4.10;3.97;;;;;;;15.81;67.72;99281.56;5100765;28;20209;-69
2023/03/13 11:14:33;;;;;;;2.70;2.50;;;;;;;15.76;67.66;99281.25;5100454;28;20281;-69
2023/03/13 11:17:29;;;;;;;4.00;2.27;;;;;;;15.67;68.14;99279.59;5101322;28;20186;-69
2023/03/13 11:20:26;;;;;;;2.93;2.90;;;;;;;15.75;67.73;99268.75;5097828;28;20185;-69
2023/03/13 11:23:11;;;;;;;2.23;2.23;;;;;;;15.65;67.00;99278.94;5099807;28;20580;-69
2023/03/13 11:26:10;;;;;;;3.33;3.23;;;;;;;15.64;65.69;99286.19;5100553;28;20265;-70
2023/03/13 11:28:56;;;;;;;3.40;2.10;;;;;;;15.66;67.66;99275.22;5098191;28;20631;-69
2023/03/13 11:31:33;;;;;;;2.17;1.97;;;;;;;15.73;66.38;99268.13;5096458;28;20178;-70
2023/03/13 11:34:05;;;;;;;1.70;1.70;;;;;;;15.77;66.25;99263.19;5096403;28;20185;-69
2023/03/13 11:36:39;;;;;;;3.27;1.60;;;;;;;15.85;64.76;99263.13;5096278;28;20638;-69
2023/03/13 11:39:43;;;;;;;10.70;1.70;;;;;;;15.94;64.95;99270.13;5078398;28;20228;-70
2023/03/13 11:42:31;;;;;;;2.03;1.70;;;;;;;15.95;65.26;99255.63;5096141;28;20208;-69
2023/03/13 11:45:07;;;;;;;2.37;2.23;;;;;;;15.93;64.71;99258.50;5096182;28;20184;-69
2023/03/13 11:47:55;;;;;;;4.77;1.87;;;;;;;16.00;63.67;99263.19;5096394;28;20198;-69
2023/03/13 11:50:41;;;;;;;1.80;1.70;;;;;;;16.07;62.62;99237.97;5096056;28;20658;-69
2023/03/13 11:53:27;;;;;;;2.10;2.10;;;;;;;16.13;62.29;99247.19;5095871;28;20205;-69
2023/03/13 11:56:03;;;;;;;4.03;2.47;;;;;;;16.20;61.73;99233.78;5096199;28;20223;-70
2023/03/13 11:58:53;;;;;;;1.70;1.60;;;;;;;16.23;61.14;99244.22;5095617;28;20174;-70